sensor_id;sensor_type;location;lat;lon;timestamp;temperature;humidity
37052;DHT22;22964;52.272;13.356;2023-07-13T00:01:31;22.90;43.80
37052;DHT22;22964;52.272;13.356;2023-07-13T00:03:57;22.90;43.60
37052;DHT22;22964;52.272;13.356;2023-07-13T00:06:23;22.80;43.80
37052;DHT22;22964;52.272;13.356;2023-07-13T00:08:49;22.80;43.90
37052;DHT22;22964;52.272;13.356;2023-07-13T00:11:16;22.70;44.10
37052;DHT22;22964;52.272;13.356;2023-07-13T00:13:43;22.70;44.40
37052;DHT22;22964;52.272;13.356;2023-07-13T00:16:10;22.60;44.40
37052;DHT22;22964;52.272;13.356;2023-07-13T00:18:36;22.60;44.50
37052;DHT22;22964;52.272;13.356;2023-07-13T00:21:03;22.60;44.60
37052;DHT22;22964;52.272;13.356;2023-07-13T00:23:37;22.60;44.80
37052;DHT22;22964;52.272;13.356;2023-07-13T00:26:04;22.50;45.20
37052;DHT22;22964;52.272;13.356;2023-07-13T00:28:31;22.50;44.80
37052;DHT22;22964;52.272;13.356;2023-07-13T00:30:57;22.50;45.00
37052;DHT22;22964;52.272;13.356;2023-07-13T00:33:24;22.50;45.20
37052;DHT22;22964;52.272;13.356;2023-07-13T00:35:50;22.40;45.20
37052;DHT22;22964;52.272;13.356;2023-07-13T00:38:16;22.40;45.20
37052;DHT22;22964;52.272;13.356;2023-07-13T00:40:42;22.40;45.30
37052;DHT22;22964;52.272;13.356;2023-07-13T00:43:20;22.30;45.40
37052;DHT22;22964;52.272;13.356;2023-07-13T00:48:18;22.30;45.50
37052;DHT22;22964;52.272;13.356;2023-07-13T00:50:48;22.20;46.00
37052;DHT22;22964;52.272;13.356;2023-07-13T00:53:15;22.20;46.00
37052;DHT22;22964;52.272;13.356;2023-07-13T00:55:43;22.20;46.00
37052;DHT22;22964;52.272;13.356;2023-07-13T00:58:09;22.10;46.10
37052;DHT22;22964;52.272;13.356;2023-07-13T01:00:36;22.10;46.20
37052;DHT22;22964;52.272;13.356;2023-07-13T01:03:04;22.00;46.50
37052;DHT22;22964;52.272;13.356;2023-07-13T01:05:32;22.00;46.60
37052;DHT22;22964;52.272;13.356;2023-07-13T01:07:59;22.00;46.60
37052;DHT22;22964;52.272;13.356;2023-07-13T01:10:26;21.90;46.70
37052;DHT22;22964;52.272;13.356;2023-07-13T01:12:52;21.90;46.80
37052;DHT22;22964;52.272;13.356;2023-07-13T01:15:42;21.90;46.90
37052;DHT22;22964;52.272;13.356;2023-07-13T01:18:13;21.90;48.00
37052;DHT22;22964;52.272;13.356;2023-07-13T01:20:40;21.90;47.20
37052;DHT22;22964;52.272;13.356;2023-07-13T01:23:09;21.80;47.10
37052;DHT22;22964;52.272;13.356;2023-07-13T01:25:36;21.90;47.30
37052;DHT22;22964;52.272;13.356;2023-07-13T01:28:05;21.90;47.40
37052;DHT22;22964;52.272;13.356;2023-07-13T01:30:31;21.80;47.50
37052;DHT22;22964;52.272;13.356;2023-07-13T01:32:58;21.80;47.50
37052;DHT22;22964;52.272;13.356;2023-07-13T01:35:25;21.80;47.70
37052;DHT22;22964;52.272;13.356;2023-07-13T01:37:53;21.70;47.70
37052;DHT22;22964;52.272;13.356;2023-07-13T01:40:20;21.70;47.70
37052;DHT22;22964;52.272;13.356;2023-07-13T01:42:45;21.70;47.90
37052;DHT22;22964;52.272;13.356;2023-07-13T01:45:11;21.70;47.90
37052;DHT22;22964;52.272;13.356;2023-07-13T01:47:37;21.70;47.90
37052;DHT22;22964;52.272;13.356;2023-07-13T01:50:03;21.60;48.00
37052;DHT22;22964;52.272;13.356;2023-07-13T01:52:30;21.60;48.20
37052;DHT22;22964;52.272;13.356;2023-07-13T01:54:57;21.60;48.20
37052;DHT22;22964;52.272;13.356;2023-07-13T01:57:23;21.60;48.30
37052;DHT22;22964;52.272;13.356;2023-07-13T01:59:49;21.60;48.30
37052;DHT22;22964;52.272;13.356;2023-07-13T02:02:15;21.50;48.50
37052;DHT22;22964;52.272;13.356;2023-07-13T02:04:40;21.50;48.50
37052;DHT22;22964;52.272;13.356;2023-07-13T02:07:08;21.50;48.70
37052;DHT22;22964;52.272;13.356;2023-07-13T02:09:34;21.50;48.90
37052;DHT22;22964;52.272;13.356;2023-07-13T02:12:01;21.40;48.80
37052;DHT22;22964;52.272;13.356;2023-07-13T02:14:32;21.40;48.90
37052;DHT22;22964;52.272;13.356;2023-07-13T02:16:58;21.40;48.80
37052;DHT22;22964;52.272;13.356;2023-07-13T02:19:23;21.40;48.90
37052;DHT22;22964;52.272;13.356;2023-07-13T02:21:51;21.40;49.10
37052;DHT22;22964;52.272;13.356;2023-07-13T02:24:16;21.30;49.30
37052;DHT22;22964;52.272;13.356;2023-07-13T02:26:44;21.30;49.30
37052;DHT22;22964;52.272;13.356;2023-07-13T02:29:10;21.20;49.30
37052;DHT22;22964;52.272;13.356;2023-07-13T02:31:35;21.20;49.30
37052;DHT22;22964;52.272;13.356;2023-07-13T02:34:02;21.20;49.40
37052;DHT22;22964;52.272;13.356;2023-07-13T02:36:28;21.10;49.50
37052;DHT22;22964;52.272;13.356;2023-07-13T02:38:54;21.00;49.50
37052;DHT22;22964;52.272;13.356;2023-07-13T02:41:20;21.00;49.60
37052;DHT22;22964;52.272;13.356;2023-07-13T02:43:46;21.00;49.80
37052;DHT22;22964;52.272;13.356;2023-07-13T02:46:12;21.00;49.80
37052;DHT22;22964;52.272;13.356;2023-07-13T02:48:39;20.90;49.90
37052;DHT22;22964;52.272;13.356;2023-07-13T02:51:05;20.80;50.00
37052;DHT22;22964;52.272;13.356;2023-07-13T02:53:31;20.80;50.10
37052;DHT22;22964;52.272;13.356;2023-07-13T02:55:57;20.70;50.20
37052;DHT22;22964;52.272;13.356;2023-07-13T02:58:22;20.70;50.20
37052;DHT22;22964;52.272;13.356;2023-07-13T03:00:49;20.60;50.30
37052;DHT22;22964;52.272;13.356;2023-07-13T03:03:16;20.60;51.20
37052;DHT22;22964;52.272;13.356;2023-07-13T03:05:44;20.60;50.70
37052;DHT22;22964;52.272;13.356;2023-07-13T03:08:11;20.60;50.90
37052;DHT22;22964;52.272;13.356;2023-07-13T03:10:38;20.50;51.00
37052;DHT22;22964;52.272;13.356;2023-07-13T03:13:07;20.50;51.10
37052;DHT22;22964;52.272;13.356;2023-07-13T03:15:33;20.50;51.20
37052;DHT22;22964;52.272;13.356;2023-07-13T03:17:59;20.40;51.30
37052;DHT22;22964;52.272;13.356;2023-07-13T03:20:25;20.40;51.40
37052;DHT22;22964;52.272;13.356;2023-07-13T03:22:51;20.40;51.60
37052;DHT22;22964;52.272;13.356;2023-07-13T03:25:17;20.40;51.60
37052;DHT22;22964;52.272;13.356;2023-07-13T03:27:43;20.30;51.80
37052;DHT22;22964;52.272;13.356;2023-07-13T03:30:09;20.30;51.80
37052;DHT22;22964;52.272;13.356;2023-07-13T03:32:35;20.30;51.90
37052;DHT22;22964;52.272;13.356;2023-07-13T03:35:01;20.30;52.00
37052;DHT22;22964;52.272;13.356;2023-07-13T03:37:30;20.30;52.10
37052;DHT22;22964;52.272;13.356;2023-07-13T03:39:56;20.30;52.20
37052;DHT22;22964;52.272;13.356;2023-07-13T03:42:22;20.30;52.30
37052;DHT22;22964;52.272;13.356;2023-07-13T03:44:48;20.30;52.40
37052;DHT22;22964;52.272;13.356;2023-07-13T03:47:18;20.30;52.50
37052;DHT22;22964;52.272;13.356;2023-07-13T03:49:45;20.30;52.50
37052;DHT22;22964;52.272;13.356;2023-07-13T03:52:12;20.30;52.60
37052;DHT22;22964;52.272;13.356;2023-07-13T03:54:38;20.30;52.60
37052;DHT22;22964;52.272;13.356;2023-07-13T03:57:04;20.30;52.60
37052;DHT22;22964;52.272;13.356;2023-07-13T03:59:33;20.30;52.60
37052;DHT22;22964;52.272;13.356;2023-07-13T04:02:00;20.30;52.70
37052;DHT22;22964;52.272;13.356;2023-07-13T04:04:26;20.30;52.80
37052;DHT22;22964;52.272;13.356;2023-07-13T04:06:52;20.30;53.00
37052;DHT22;22964;52.272;13.356;2023-07-13T04:09:19;20.40;53.20
37052;DHT22;22964;52.272;13.356;2023-07-13T04:11:44;20.40;53.30
37052;DHT22;22964;52.272;13.356;2023-07-13T04:14:10;20.40;53.30
37052;DHT22;22964;52.272;13.356;2023-07-13T04:16:36;20.50;53.40
37052;DHT22;22964;52.272;13.356;2023-07-13T04:19:02;20.50;53.40
37052;DHT22;22964;52.272;13.356;2023-07-13T04:21:29;20.50;53.40
37052;DHT22;22964;52.272;13.356;2023-07-13T04:23:56;20.60;53.70
37052;DHT22;22964;52.272;13.356;2023-07-13T04:26:22;20.60;53.60
37052;DHT22;22964;52.272;13.356;2023-07-13T04:28:49;20.60;53.70
37052;DHT22;22964;52.272;13.356;2023-07-13T04:31:15;20.60;53.80
37052;DHT22;22964;52.272;13.356;2023-07-13T04:33:41;20.70;53.80
37052;DHT22;22964;52.272;13.356;2023-07-13T04:36:08;20.80;54.00
37052;DHT22;22964;52.272;13.356;2023-07-13T04:38:35;20.80;54.20
37052;DHT22;22964;52.272;13.356;2023-07-13T04:41:05;20.90;54.20
37052;DHT22;22964;52.272;13.356;2023-07-13T04:43:32;20.90;54.40
37052;DHT22;22964;52.272;13.356;2023-07-13T04:46:13;21.10;54.20
37052;DHT22;22964;52.272;13.356;2023-07-13T04:48:39;21.10;54.40
37052;DHT22;22964;52.272;13.356;2023-07-13T04:51:05;21.20;53.90
37052;DHT22;22964;52.272;13.356;2023-07-13T04:53:32;21.30;53.90
37052;DHT22;22964;52.272;13.356;2023-07-13T04:56:00;21.40;53.90
37052;DHT22;22964;52.272;13.356;2023-07-13T04:58:27;21.40;53.80
37052;DHT22;22964;52.272;13.356;2023-07-13T05:00:58;21.50;53.80
37052;DHT22;22964;52.272;13.356;2023-07-13T05:03:24;21.70;53.80
37052;DHT22;22964;52.272;13.356;2023-07-13T05:05:57;21.70;53.50
37052;DHT22;22964;52.272;13.356;2023-07-13T05:08:23;21.80;53.90
37052;DHT22;22964;52.272;13.356;2023-07-13T05:10:50;21.90;53.60
37052;DHT22;22964;52.272;13.356;2023-07-13T05:13:16;22.00;53.60
37052;DHT22;22964;52.272;13.356;2023-07-13T05:15:41;22.10;53.50
37052;DHT22;22964;52.272;13.356;2023-07-13T05:18:07;22.20;53.80
37052;DHT22;22964;52.272;13.356;2023-07-13T05:20:33;22.30;53.40
37052;DHT22;22964;52.272;13.356;2023-07-13T05:22:58;22.40;53.20
37052;DHT22;22964;52.272;13.356;2023-07-13T05:25:24;22.60;53.10
37052;DHT22;22964;52.272;13.356;2023-07-13T05:27:50;22.70;52.90
37052;DHT22;22964;52.272;13.356;2023-07-13T05:30:15;22.80;52.90
37052;DHT22;22964;52.272;13.356;2023-07-13T05:32:41;22.90;53.50
37052;DHT22;22964;52.272;13.356;2023-07-13T05:35:07;23.00;52.70
37052;DHT22;22964;52.272;13.356;2023-07-13T05:37:33;23.10;52.60
37052;DHT22;22964;52.272;13.356;2023-07-13T05:39:58;23.30;53.10
37052;DHT22;22964;52.272;13.356;2023-07-13T05:42:24;23.40;52.20
37052;DHT22;22964;52.272;13.356;2023-07-13T05:44:50;23.50;51.90
37052;DHT22;22964;52.272;13.356;2023-07-13T05:47:15;23.60;51.70
37052;DHT22;22964;52.272;13.356;2023-07-13T05:49:41;23.80;51.60
37052;DHT22;22964;52.272;13.356;2023-07-13T05:52:07;23.80;51.30
37052;DHT22;22964;52.272;13.356;2023-07-13T05:54:33;24.00;51.40
37052;DHT22;22964;52.272;13.356;2023-07-13T05:56:59;24.10;51.20
37052;DHT22;22964;52.272;13.356;2023-07-13T05:59:24;24.20;51.10
37052;DHT22;22964;52.272;13.356;2023-07-13T06:01:51;24.30;51.00
37052;DHT22;22964;52.272;13.356;2023-07-13T06:04:18;24.40;50.60
37052;DHT22;22964;52.272;13.356;2023-07-13T06:06:44;24.50;50.40
37052;DHT22;22964;52.272;13.356;2023-07-13T06:09:10;24.60;50.30
37052;DHT22;22964;52.272;13.356;2023-07-13T06:11:36;24.70;50.20
37052;DHT22;22964;52.272;13.356;2023-07-13T06:14:02;24.80;50.00
37052;DHT22;22964;52.272;13.356;2023-07-13T06:16:29;25.00;50.00
37052;DHT22;22964;52.272;13.356;2023-07-13T06:18:55;25.00;49.70
37052;DHT22;22964;52.272;13.356;2023-07-13T06:21:22;25.10;49.50
37052;DHT22;22964;52.272;13.356;2023-07-13T06:23:50;25.30;49.10
37052;DHT22;22964;52.272;13.356;2023-07-13T06:26:16;25.40;49.20
37052;DHT22;22964;52.272;13.356;2023-07-13T06:28:43;25.50;48.90
37052;DHT22;22964;52.272;13.356;2023-07-13T06:31:10;25.60;48.80
37052;DHT22;22964;52.272;13.356;2023-07-13T06:33:37;25.70;48.40
37052;DHT22;22964;52.272;13.356;2023-07-13T06:36:04;25.80;48.30
37052;DHT22;22964;52.272;13.356;2023-07-13T06:38:31;25.90;48.10
37052;DHT22;22964;52.272;13.356;2023-07-13T06:40:57;26.00;48.10
37052;DHT22;22964;52.272;13.356;2023-07-13T06:43:22;26.10;47.90
37052;DHT22;22964;52.272;13.356;2023-07-13T06:45:50;26.20;47.70
37052;DHT22;22964;52.272;13.356;2023-07-13T06:48:18;26.30;47.60
37052;DHT22;22964;52.272;13.356;2023-07-13T06:50:44;26.40;47.40
37052;DHT22;22964;52.272;13.356;2023-07-13T06:53:11;26.60;47.30
37052;DHT22;22964;52.272;13.356;2023-07-13T06:55:38;26.70;47.10
37052;DHT22;22964;52.272;13.356;2023-07-13T06:58:04;26.80;46.90
37052;DHT22;22964;52.272;13.356;2023-07-13T07:00:29;26.90;46.70
37052;DHT22;22964;52.272;13.356;2023-07-13T07:02:58;27.00;46.30
37052;DHT22;22964;52.272;13.356;2023-07-13T07:05:23;27.10;46.00
37052;DHT22;22964;52.272;13.356;2023-07-13T07:07:50;27.10;46.00
37052;DHT22;22964;52.272;13.356;2023-07-13T07:10:16;27.20;45.80
37052;DHT22;22964;52.272;13.356;2023-07-13T07:12:42;27.30;45.90
37052;DHT22;22964;52.272;13.356;2023-07-13T07:15:08;27.40;45.70
37052;DHT22;22964;52.272;13.356;2023-07-13T07:17:34;27.50;45.60
37052;DHT22;22964;52.272;13.356;2023-07-13T07:20:00;27.50;45.30
37052;DHT22;22964;52.272;13.356;2023-07-13T07:22:25;27.60;45.20
37052;DHT22;22964;52.272;13.356;2023-07-13T07:24:53;27.70;45.00
37052;DHT22;22964;52.272;13.356;2023-07-13T07:27:19;27.80;44.80
37052;DHT22;22964;52.272;13.356;2023-07-13T07:29:45;27.80;44.60
37052;DHT22;22964;52.272;13.356;2023-07-13T07:32:11;27.90;44.60
37052;DHT22;22964;52.272;13.356;2023-07-13T07:34:37;28.00;44.50
37052;DHT22;22964;52.272;13.356;2023-07-13T07:37:03;28.10;44.90
37052;DHT22;22964;52.272;13.356;2023-07-13T07:39:29;28.20;44.00
37052;DHT22;22964;52.272;13.356;2023-07-13T07:41:56;28.30;44.00
37052;DHT22;22964;52.272;13.356;2023-07-13T07:44:22;28.50;43.60
37052;DHT22;22964;52.272;13.356;2023-07-13T07:46:47;28.50;43.10
37052;DHT22;22964;52.272;13.356;2023-07-13T07:49:13;28.60;42.50
37052;DHT22;22964;52.272;13.356;2023-07-13T07:51:39;28.70;42.60
37052;DHT22;22964;52.272;13.356;2023-07-13T07:54:05;28.80;42.40
37052;DHT22;22964;52.272;13.356;2023-07-13T07:56:32;28.80;42.10
37052;DHT22;22964;52.272;13.356;2023-07-13T07:58:58;28.90;42.20
37052;DHT22;22964;52.272;13.356;2023-07-13T08:01:24;29.00;42.10
37052;DHT22;22964;52.272;13.356;2023-07-13T08:03:50;29.00;42.10
37052;DHT22;22964;52.272;13.356;2023-07-13T08:06:16;29.10;42.20
37052;DHT22;22964;52.272;13.356;2023-07-13T08:08:42;29.20;42.10
37052;DHT22;22964;52.272;13.356;2023-07-13T08:11:10;29.30;41.80
37052;DHT22;22964;52.272;13.356;2023-07-13T08:13:37;29.40;41.90
37052;DHT22;22964;52.272;13.356;2023-07-13T08:16:04;29.50;41.90
37052;DHT22;22964;52.272;13.356;2023-07-13T08:18:31;29.60;41.50
37052;DHT22;22964;52.272;13.356;2023-07-13T08:20:57;29.80;41.80
37052;DHT22;22964;52.272;13.356;2023-07-13T08:23:25;29.80;41.20
37052;DHT22;22964;52.272;13.356;2023-07-13T08:25:54;30.00;41.00
37052;DHT22;22964;52.272;13.356;2023-07-13T08:28:21;30.20;40.40
37052;DHT22;22964;52.272;13.356;2023-07-13T08:30:47;30.30;40.40
37052;DHT22;22964;52.272;13.356;2023-07-13T08:33:18;30.40;39.80
37052;DHT22;22964;52.272;13.356;2023-07-13T08:35:48;30.50;39.00
37052;DHT22;22964;52.272;13.356;2023-07-13T08:38:14;30.60;38.90
37052;DHT22;22964;52.272;13.356;2023-07-13T08:40:41;30.70;39.50
37052;DHT22;22964;52.272;13.356;2023-07-13T08:43:13;30.70;39.00
37052;DHT22;22964;52.272;13.356;2023-07-13T08:45:52;30.80;38.70
37052;DHT22;22964;52.272;13.356;2023-07-13T08:48:39;30.90;38.30
37052;DHT22;22964;52.272;13.356;2023-07-13T08:53:56;31.00;37.00
37052;DHT22;22964;52.272;13.356;2023-07-13T08:56:27;31.10;37.30
37052;DHT22;22964;52.272;13.356;2023-07-13T08:58:57;30.90;37.10
37052;DHT22;22964;52.272;13.356;2023-07-13T09:01:52;30.90;37.20
37052;DHT22;22964;52.272;13.356;2023-07-13T09:04:32;30.80;36.90
37052;DHT22;22964;52.272;13.356;2023-07-13T09:07:14;30.70;37.20
37052;DHT22;22964;52.272;13.356;2023-07-13T09:10:00;30.60;36.70
37052;DHT22;22964;52.272;13.356;2023-07-13T09:12:35;30.60;36.60
37052;DHT22;22964;52.272;13.356;2023-07-13T09:15:04;30.60;36.70
37052;DHT22;22964;52.272;13.356;2023-07-13T09:17:43;30.40;36.90
37052;DHT22;22964;52.272;13.356;2023-07-13T09:22:46;30.30;37.20
37052;DHT22;22964;52.272;13.356;2023-07-13T09:25:24;30.30;37.80
37052;DHT22;22964;52.272;13.356;2023-07-13T09:27:53;30.30;37.50
37052;DHT22;22964;52.272;13.356;2023-07-13T09:30:51;30.30;37.70
37052;DHT22;22964;52.272;13.356;2023-07-13T09:33:15;30.30;37.30
37052;DHT22;22964;52.272;13.356;2023-07-13T09:35:40;30.30;37.60
37052;DHT22;22964;52.272;13.356;2023-07-13T09:38:16;30.30;37.50
37052;DHT22;22964;52.272;13.356;2023-07-13T09:41:15;30.20;36.90
37052;DHT22;22964;52.272;13.356;2023-07-13T09:44:14;30.10;36.90
37052;DHT22;22964;52.272;13.356;2023-07-13T09:46:54;30.00;37.00
37052;DHT22;22964;52.272;13.356;2023-07-13T09:49:24;29.90;37.20
37052;DHT22;22964;52.272;13.356;2023-07-13T09:51:58;29.90;37.20
37052;DHT22;22964;52.272;13.356;2023-07-13T09:54:26;29.90;37.00
37052;DHT22;22964;52.272;13.356;2023-07-13T09:56:56;29.90;37.30
37052;DHT22;22964;52.272;13.356;2023-07-13T09:59:27;29.90;37.30
37052;DHT22;22964;52.272;13.356;2023-07-13T10:01:54;29.90;37.70
37052;DHT22;22964;52.272;13.356;2023-07-13T10:04:27;29.90;37.90
37052;DHT22;22964;52.272;13.356;2023-07-13T10:07:06;30.00;37.60
37052;DHT22;22964;52.272;13.356;2023-07-13T10:09:32;30.10;36.50
37052;DHT22;22964;52.272;13.356;2023-07-13T10:11:58;30.20;36.60
37052;DHT22;22964;52.272;13.356;2023-07-13T10:14:23;30.20;36.40
37052;DHT22;22964;52.272;13.356;2023-07-13T10:16:59;30.10;35.70
37052;DHT22;22964;52.272;13.356;2023-07-13T10:19:31;30.00;36.00
37052;DHT22;22964;52.272;13.356;2023-07-13T10:22:09;29.90;36.00
37052;DHT22;22964;52.272;13.356;2023-07-13T10:24:39;29.80;35.00
37052;DHT22;22964;52.272;13.356;2023-07-13T10:27:27;29.70;35.50
37052;DHT22;22964;52.272;13.356;2023-07-13T10:30:23;29.60;35.60
37052;DHT22;22964;52.272;13.356;2023-07-13T10:32:51;29.60;35.90
37052;DHT22;22964;52.272;13.356;2023-07-13T10:35:20;29.60;36.50
37052;DHT22;22964;52.272;13.356;2023-07-13T10:40:36;29.90;36.60
37052;DHT22;22964;52.272;13.356;2023-07-13T10:43:09;30.10;36.20
37052;DHT22;22964;52.272;13.356;2023-07-13T10:45:37;30.30;35.90
37052;DHT22;22964;52.272;13.356;2023-07-13T10:48:03;30.50;35.80
37052;DHT22;22964;52.272;13.356;2023-07-13T10:50:29;30.60;35.70
37052;DHT22;22964;52.272;13.356;2023-07-13T10:53:03;30.70;35.00
37052;DHT22;22964;52.272;13.356;2023-07-13T10:58:28;30.80;34.80
37052;DHT22;22964;52.272;13.356;2023-07-13T11:03:35;30.90;34.90
37052;DHT22;22964;52.272;13.356;2023-07-13T11:06:11;30.90;34.80
37052;DHT22;22964;52.272;13.356;2023-07-13T11:21:28;31.20;33.10
37052;DHT22;22964;52.272;13.356;2023-07-13T11:24:15;31.40;33.70
37052;DHT22;22964;52.272;13.356;2023-07-13T11:31:50;31.70;31.60
37052;DHT22;22964;52.272;13.356;2023-07-13T11:34:21;31.80;32.50
37052;DHT22;22964;52.272;13.356;2023-07-13T11:36:49;31.80;32.40
37052;DHT22;22964;52.272;13.356;2023-07-13T11:41:53;32.00;32.50
37052;DHT22;22964;52.272;13.356;2023-07-13T11:44:23;32.10;31.60
37052;DHT22;22964;52.272;13.356;2023-07-13T11:46:57;32.20;32.30
37052;DHT22;22964;52.272;13.356;2023-07-13T11:49:31;32.30;32.30
37052;DHT22;22964;52.272;13.356;2023-07-13T11:51:58;32.40;32.40
37052;DHT22;22964;52.272;13.356;2023-07-13T11:54:31;32.60;32.20
37052;DHT22;22964;52.272;13.356;2023-07-13T11:57:18;32.70;31.50
37052;DHT22;22964;52.272;13.356;2023-07-13T11:59:50;32.80;30.50
37052;DHT22;22964;52.272;13.356;2023-07-13T12:04:52;33.00;29.80
37052;DHT22;22964;52.272;13.356;2023-07-13T12:07:19;33.10;30.50
37052;DHT22;22964;52.272;13.356;2023-07-13T12:09:45;33.10;30.30
37052;DHT22;22964;52.272;13.356;2023-07-13T12:12:16;33.20;30.30
37052;DHT22;22964;52.272;13.356;2023-07-13T12:14:43;33.20;30.00
37052;DHT22;22964;52.272;13.356;2023-07-13T12:17:21;33.30;30.20
37052;DHT22;22964;52.272;13.356;2023-07-13T12:19:48;33.30;29.80
37052;DHT22;22964;52.272;13.356;2023-07-13T12:22:16;33.40;30.10
37052;DHT22;22964;52.272;13.356;2023-07-13T12:24:43;33.40;29.60
37052;DHT22;22964;52.272;13.356;2023-07-13T12:27:23;33.50;29.10
37052;DHT22;22964;52.272;13.356;2023-07-13T12:29:52;33.50;28.60
37052;DHT22;22964;52.272;13.356;2023-07-13T12:32:19;33.50;28.90
37052;DHT22;22964;52.272;13.356;2023-07-13T12:34:53;33.50;28.90
37052;DHT22;22964;52.272;13.356;2023-07-13T12:37:19;33.50;28.40
37052;DHT22;22964;52.272;13.356;2023-07-13T12:39:47;33.40;28.90
37052;DHT22;22964;52.272;13.356;2023-07-13T12:44:43;33.30;28.90
37052;DHT22;22964;52.272;13.356;2023-07-13T12:47:12;33.20;28.60
37052;DHT22;22964;52.272;13.356;2023-07-13T12:49:59;33.20;28.50
37052;DHT22;22964;52.272;13.356;2023-07-13T12:52:32;33.20;27.70
37052;DHT22;22964;52.272;13.356;2023-07-13T12:55:05;33.20;28.40
37052;DHT22;22964;52.272;13.356;2023-07-13T12:57:31;33.20;28.40
37052;DHT22;22964;52.272;13.356;2023-07-13T12:59:57;33.30;28.50
37052;DHT22;22964;52.272;13.356;2023-07-13T13:04:52;33.30;28.50
37052;DHT22;22964;52.272;13.356;2023-07-13T13:07:18;33.30;28.70
37052;DHT22;22964;52.272;13.356;2023-07-13T13:09:45;33.40;28.60
37052;DHT22;22964;52.272;13.356;2023-07-13T13:12:12;33.40;28.70
37052;DHT22;22964;52.272;13.356;2023-07-13T13:14:38;33.50;28.90
37052;DHT22;22964;52.272;13.356;2023-07-13T13:17:18;33.60;28.90
37052;DHT22;22964;52.272;13.356;2023-07-13T13:19:45;33.60;28.30
37052;DHT22;22964;52.272;13.356;2023-07-13T13:22:11;33.70;28.20
37052;DHT22;22964;52.272;13.356;2023-07-13T13:24:37;33.80;28.10
37052;DHT22;22964;52.272;13.356;2023-07-13T13:27:03;33.70;27.90
37052;DHT22;22964;52.272;13.356;2023-07-13T13:29:31;33.60;27.90
37052;DHT22;22964;52.272;13.356;2023-07-13T13:31:58;33.60;27.90
37052;DHT22;22964;52.272;13.356;2023-07-13T13:34:24;33.60;27.60
37052;DHT22;22964;52.272;13.356;2023-07-13T13:36:51;33.50;27.70
37052;DHT22;22964;52.272;13.356;2023-07-13T13:39:26;33.50;27.90
37052;DHT22;22964;52.272;13.356;2023-07-13T13:41:54;33.50;27.60
37052;DHT22;22964;52.272;13.356;2023-07-13T13:44:20;33.40;27.30
37052;DHT22;22964;52.272;13.356;2023-07-13T13:46:49;33.50;27.40
37052;DHT22;22964;52.272;13.356;2023-07-13T13:49:22;33.40;27.20
37052;DHT22;22964;52.272;13.356;2023-07-13T13:51:50;33.40;26.90
37052;DHT22;22964;52.272;13.356;2023-07-13T13:54:17;33.30;27.30
37052;DHT22;22964;52.272;13.356;2023-07-13T13:56:45;33.30;27.10
37052;DHT22;22964;52.272;13.356;2023-07-13T13:59:11;33.30;27.40
37052;DHT22;22964;52.272;13.356;2023-07-13T14:01:38;33.30;27.40
37052;DHT22;22964;52.272;13.356;2023-07-13T14:04:04;33.30;27.60
37052;DHT22;22964;52.272;13.356;2023-07-13T14:06:31;33.20;27.70
37052;DHT22;22964;52.272;13.356;2023-07-13T14:08:57;33.20;27.80
37052;DHT22;22964;52.272;13.356;2023-07-13T14:11:23;33.20;27.60
37052;DHT22;22964;52.272;13.356;2023-07-13T14:13:52;33.10;27.30
37052;DHT22;22964;52.272;13.356;2023-07-13T14:16:20;33.20;27.30
37052;DHT22;22964;52.272;13.356;2023-07-13T14:18:47;33.10;27.40
37052;DHT22;22964;52.272;13.356;2023-07-13T14:21:19;33.00;27.50
37052;DHT22;22964;52.272;13.356;2023-07-13T14:23:46;33.00;27.40
37052;DHT22;22964;52.272;13.356;2023-07-13T14:26:18;33.00;27.40
37052;DHT22;22964;52.272;13.356;2023-07-13T14:28:49;32.90;28.20
37052;DHT22;22964;52.272;13.356;2023-07-13T14:31:16;32.80;27.80
37052;DHT22;22964;52.272;13.356;2023-07-13T14:33:43;32.80;27.70
37052;DHT22;22964;52.272;13.356;2023-07-13T14:36:36;32.80;27.90
37052;DHT22;22964;52.272;13.356;2023-07-13T14:39:18;32.80;27.40
37052;DHT22;22964;52.272;13.356;2023-07-13T14:41:44;32.80;27.40
37052;DHT22;22964;52.272;13.356;2023-07-13T14:44:17;32.80;27.40
37052;DHT22;22964;52.272;13.356;2023-07-13T14:46:44;32.80;28.00
37052;DHT22;22964;52.272;13.356;2023-07-13T14:49:19;32.80;27.20
37052;DHT22;22964;52.272;13.356;2023-07-13T14:51:47;32.80;27.40
37052;DHT22;22964;52.272;13.356;2023-07-13T14:54:13;32.80;27.30
37052;DHT22;22964;52.272;13.356;2023-07-13T14:56:39;32.80;27.50
37052;DHT22;22964;52.272;13.356;2023-07-13T14:59:04;32.80;27.40
37052;DHT22;22964;52.272;13.356;2023-07-13T15:01:31;32.80;27.50
37052;DHT22;22964;52.272;13.356;2023-07-13T15:03:57;32.80;27.50
37052;DHT22;22964;52.272;13.356;2023-07-13T15:06:23;32.80;27.50
37052;DHT22;22964;52.272;13.356;2023-07-13T15:08:49;32.80;27.30
37052;DHT22;22964;52.272;13.356;2023-07-13T15:11:16;32.80;27.20
37052;DHT22;22964;52.272;13.356;2023-07-13T15:13:42;32.90;27.20
37052;DHT22;22964;52.272;13.356;2023-07-13T15:16:22;32.90;27.00
37052;DHT22;22964;52.272;13.356;2023-07-13T15:18:49;32.90;26.90
37052;DHT22;22964;52.272;13.356;2023-07-13T15:21:20;33.00;27.20
37052;DHT22;22964;52.272;13.356;2023-07-13T15:23:46;33.00;26.90
37052;DHT22;22964;52.272;13.356;2023-07-13T15:26:14;33.10;27.20
37052;DHT22;22964;52.272;13.356;2023-07-13T15:28:41;33.20;27.00
37052;DHT22;22964;52.272;13.356;2023-07-13T15:31:23;33.20;26.80
37052;DHT22;22964;52.272;13.356;2023-07-13T15:33:53;33.20;26.30
37052;DHT22;22964;52.272;13.356;2023-07-13T15:36:22;33.30;26.50
37052;DHT22;22964;52.272;13.356;2023-07-13T15:38:48;33.30;26.30
37052;DHT22;22964;52.272;13.356;2023-07-13T15:41:27;33.20;26.10
37052;DHT22;22964;52.272;13.356;2023-07-13T15:43:56;33.10;26.30
37052;DHT22;22964;52.272;13.356;2023-07-13T15:46:26;33.10;26.10
37052;DHT22;22964;52.272;13.356;2023-07-13T15:48:53;33.10;26.40
37052;DHT22;22964;52.272;13.356;2023-07-13T15:51:30;33.00;26.40
37052;DHT22;22964;52.272;13.356;2023-07-13T15:54:01;33.00;26.00
37052;DHT22;22964;52.272;13.356;2023-07-13T15:56:36;33.00;26.10
37052;DHT22;22964;52.272;13.356;2023-07-13T15:59:02;33.00;26.20
37052;DHT22;22964;52.272;13.356;2023-07-13T16:01:29;33.00;26.40
37052;DHT22;22964;52.272;13.356;2023-07-13T16:03:55;33.00;26.40
37052;DHT22;22964;52.272;13.356;2023-07-13T16:06:32;33.00;26.40
37052;DHT22;22964;52.272;13.356;2023-07-13T16:09:01;33.00;26.40